Terminal Aerodrome Forecast
Issued by NWS

Home | Current Version | Previous Version | Text Only | Print | Product List | Glossary On
Versions: 1 2 3 4 5 6 7 8 9 10 11 12 13
000
FTUS45 KRIW 310527
TAFBPI
TAF
KBPI 310527Z 3106/0106 34006KT P6SM SKC
     FM311100 VRB05KT P6SM SKC
     FM311900 31012G18KT P6SM FEW070
     FM010100 33006KT P6SM SKC=

USA.gov is the U.S. government's official web portal to all federal, state and local government web resources and services.